Last 24 Hours

Canyon Lodge - 8,343ft

5 Minute Data | America/Los_Angeles
as of 5/2/26 3:27 PM PDT
Date & Time Temp (°F) RH (%) Dew Pt (°F) Wet Bulb (°F) Wind Dir (°) Wind Spd (mph) Wind Gust (mph) Wind Gst Dir (°)
5/2/26 - 1525 50.3 26 16.6 37.8 SSW | 213 3.1 11.6 WSW | 254
5/2/26 - 1520 50.1 26 16.7 37.7 WSW | 240 3.4 10.8 SW | 234
5/2/26 - 1515 50.6 26 17.1 38.1 SSW | 206 3.1 8.1 SSE | 160
5/2/26 - 1510 50.9 26 17.2 38.3 SSW | 200 2.9 8.4 S | 170
5/2/26 - 1505 51.0 26 17.6 38.4 SW | 220 3.0 8.8 SW | 232
5/2/26 - 1500 51.7 25 17.2 38.7 S | 182 4.3 14.4 S | 173
5/2/26 - 1455 52.9 26 18.9 39.7 SSW | 201 4.3 10.4 WNW | 296
5/2/26 - 1450 52.9 26 18.9 39.7 S | 183 3.9 9.3 S | 170
5/2/26 - 1445 52.9 26 18.9 39.7 SSW | 204 3.4 11.1 S | 190
5/2/26 - 1440 52.7 26 19.0 39.6 S | 191 2.5 10.0 SSW | 192
5/2/26 - 1435 52.9 27 19.4 39.8 SSW | 209 3.8 8.7 SSW | 213
5/2/26 - 1430 52.6 27 19.5 39.6 SSW | 195 3.6 9.2 SSE | 160
5/2/26 - 1425 52.6 26 19.1 39.5 SW | 216 5.7 12.1 WSW | 244
5/2/26 - 1420 53.7 26 19.6 40.2 SSW | 200 3.7 11.5 S | 190
5/2/26 - 1415 53.0 25 18.1 39.5 SSW | 192 3.9 10.0 S | 190
5/2/26 - 1410 52.3 25 17.7 39.1 S | 182 6.5 14.8 SSE | 162
5/2/26 - 1405 52.8 26 18.5 39.5 S | 185 4.7 10.1 SE | 140
5/2/26 - 1400 53.8 26 19.6 40.3 SSW | 194 3.3 8.4 S | 182
5/2/26 - 1355 55.0 26 20.9 41.1 SSW | 192 4.0 11.7 S | 178
5/2/26 - 1350 54.8 27 21.6 41.2 WSW | 240 4.1 9.9 WSW | 237
5/2/26 - 1345 54.0 27 20.7 40.6 SW | 215 2.8 6.5 SW | 232
5/2/26 - 1340 54.0 27 20.9 40.6 SW | 226 4.2 11.4 SSW | 202
5/2/26 - 1335 54.0 27 21.0 40.7 SSW | 208 2.9 7.8 SSW | 194
5/2/26 - 1330 53.5 27 20.3 40.3 SSW | 205 3.5 10.4 SW | 223
5/2/26 - 1325 53.4 27 20.3 40.2 SW | 228 4.8 11.2 SSW | 213
5/2/26 - 1320 53.4 27 20.1 40.2 SW | 226 4.2 11.2 SW | 216
5/2/26 - 1315 54.3 27 21.0 40.8 SW | 216 2.2 8.3 SSW | 202
5/2/26 - 1310 54.2 26 20.2 40.6 SSW | 192 1.9 10.0 S | 175
5/2/26 - 1305 53.5 27 20.5 40.3 WSW | 240 3.4 8.6 WNW | 290
5/2/26 - 1300 53.0 27 19.6 39.9 SW | 231 2.0 7.2 SW | 230
5/2/26 - 1255 52.9 26 19.4 39.8 SSW | 199 2.2 6.9 S | 190
5/2/26 - 1250 52.4 27 19.2 39.5 S | 180 3.9 12.6 S | 190
5/2/26 - 1245 52.8 26 19.0 39.6 S | 190 3.0 8.4 S | 176
5/2/26 - 1240 52.6 27 19.4 39.6 SW | 217 2.5 6.9 SSW | 209
5/2/26 - 1235 52.6 27 19.4 39.6 SW | 222 1.6 5.0 SW | 220
5/2/26 - 1230 52.0 27 18.7 39.2 SSW | 193 4.6 10.2 SSW | 200
5/2/26 - 1225 52.4 27 19.3 39.5 SSW | 207 3.9 9.3 S | 186
5/2/26 - 1220 53.6 26 20.0 40.2 SSE | 157 1.7 8.0 S | 187
5/2/26 - 1215 53.0 27 19.9 40.0 S | 184 2.0 7.2 S | 183
5/2/26 - 1210 52.9 27 20.0 39.9 SSW | 204 3.8 9.2 S | 189
5/2/26 - 1205 53.4 27 20.0 40.2 S | 188 5.4 13.4 S | 183
5/2/26 - 1200 55.8 27 22.1 41.8 W | 262 1.5 5.2 E | 91
5/2/26 - 1155 53.7 26 20.0 40.3 SSE | 160 1.0 5.0 SSW | 204
5/2/26 - 1150 52.3 27 19.2 39.4 SW | 219 3.2 11.2 SSW | 202
5/2/26 - 1145 52.3 27 19.7 39.6 SSW | 200 3.1 8.7 SSE | 162
5/2/26 - 1140 52.1 27 19.3 39.3 S | 191 3.8 10.3 SSW | 201
5/2/26 - 1135 52.6 27 19.9 39.7 SSW | 199 2.7 8.0 SSW | 192
5/2/26 - 1130 52.4 27 19.8 39.6 SW | 219 2.1 6.9 SSE | 168
5/2/26 - 1125 52.9 26 18.9 39.7 SSW | 204 2.4 6.7 S | 186
5/2/26 - 1120 53.7 26 19.4 40.2 SSE | 150 1.2 4.7 WSW | 246
5/2/26 - 1115 53.8 26 19.4 40.2 ENE | 65 2.0 5.9 NNE | 32
5/2/26 - 1110 53.5 25 18.6 39.9 NNE | 21 1.9 5.8 N | 3
5/2/26 - 1105 52.6 26 18.4 39.4 E | 100 1.6 5.7 NE | 52
5/2/26 - 1100 52.0 27 18.9 39.2 SW | 232 0.8 4.1 SSW | 201
5/2/26 - 1055 51.3 27 18.7 38.8 WSW | 245 1.1 4.5 W | 262
5/2/26 - 1050 51.1 28 19.1 38.8 SW | 221 1.7 6.4 SW | 216
5/2/26 - 1045 51.4 28 19.0 38.9 NW | 305 1.7 7.2 NNW | 329
5/2/26 - 1040 50.7 28 18.6 38.5 SSW | 207 3.3 8.5 WSW | 252
5/2/26 - 1035 50.7 28 18.4 38.4 SW | 221 2.0 8.8 S | 183
5/2/26 - 1030 50.6 27 17.6 38.2 S | 188 2.2 12.9 S | 171
5/2/26 - 1025 50.2 27 17.3 37.9 SSW | 200 3.7 8.0 SSE | 147
5/2/26 - 1020 51.0 27 18.0 38.5 WSW | 249 1.6 8.0 WSW | 241
5/2/26 - 1015 50.7 26 17.5 38.2 WSW | 256 1.1 4.7 SSE | 155
5/2/26 - 1010 50.4 27 17.9 38.2 SSW | 192 3.1 9.5 SSW | 198
5/2/26 - 1005 50.9 27 18.1 38.5 SSW | 211 1.4 9.3 WSW | 249
5/2/26 - 1000 50.7 27 18.1 38.4 WSW | 240 1.8 5.6 WSW | 252
5/2/26 - 0955 50.7 27 18.3 38.4 SW | 217 3.5 8.5 S | 179
5/2/26 - 0950 50.8 27 17.9 38.4 WSW | 239 3.0 8.5 S | 182
5/2/26 - 0945 51.0 27 18.0 38.5 SSW | 210 2.9 8.2 SSW | 195
5/2/26 - 0940 51.4 26 17.4 38.6 SSW | 194 2.6 8.0 WSW | 244
5/2/26 - 0935 51.3 26 17.3 38.5 SW | 216 4.0 9.6 W | 268
5/2/26 - 0930 51.5 26 17.7 38.7 WSW | 251 1.8 6.7 W | 263
5/2/26 - 0925 52.0 26 18.0 39.0 SW | 217 2.6 8.3 SSW | 207
5/2/26 - 0920 51.7 26 18.1 38.9 WSW | 239 2.2 9.3 W | 268
5/2/26 - 0915 51.5 26 17.6 38.7 SW | 214 4.2 11.9 S | 184
5/2/26 - 0910 51.0 26 17.2 38.3 S | 188 3.3 10.6 S | 188
5/2/26 - 0905 51.6 26 18.0 38.8 SW | 223 4.4 11.0 SW | 232
5/2/26 - 0900 51.2 26 17.7 38.6 WSW | 240 4.1 11.7 SSW | 204
5/2/26 - 0855 51.6 26 18.0 38.8 SW | 236 5.0 13.4 SSW | 201
5/2/26 - 0850 51.7 26 17.9 38.8 SW | 227 1.5 8.4 SSW | 206
5/2/26 - 0845 51.5 26 17.8 38.7 SW | 235 3.1 8.1 W | 269
5/2/26 - 0840 51.7 26 18.2 38.9 WSW | 252 1.4 8.3 SW | 224
5/2/26 - 0835 50.9 26 17.0 38.2 N | 1 0.7 3.6 NNW | 341
5/2/26 - 0830 50.7 25 16.3 38.0 E | 90 1.4 7.1 ESE | 111
5/2/26 - 0825 50.1 25 15.7 37.5 ENE | 73 0.7 3.0 NNE | 14
5/2/26 - 0820 50.1 25 15.6 37.5 ENE | 63 1.1 4.3 E | 96
5/2/26 - 0815 49.7 25 15.5 37.3 ESE | 117 1.2 6.1 SE | 144
5/2/26 - 0810 50.0 26 16.2 37.6 E | 92 1.3 5.4 ENE | 70
5/2/26 - 0805 49.6 26 15.8 37.3 ESE | 119 0.8 3.1 SSE | 154
5/2/26 - 0800 49.6 26 15.8 37.3 SSE | 163 1.8 8.6 SSW | 213
5/2/26 - 0755 49.5 26 15.9 37.2 S | 173 1.7 6.8 E | 86
5/2/26 - 0750 49.6 26 15.9 37.3 NNW | 343 0.4 3.4 ESE | 116
5/2/26 - 0745 49.0 26 15.5 36.9 E | 99 0.2 1.8 ESE | 108
5/2/26 - 0740 47.4 26 14.2 35.8 S | 191 1.1 5.1 W | 280
5/2/26 - 0735 47.7 26 14.6 36.0 SW | 229 0.2 1.8 WSW | 244
5/2/26 - 0730 47.7 26 14.3 36.0 SW | 219 0.9 4.9 S | 187
5/2/26 - 0725 47.6 26 14.2 35.9 SW | 226 0.3 1.9 SSE | 155
5/2/26 - 0720 47.4 26 14.3 35.8 SW | 225 2.2 7.1 SW | 232
5/2/26 - 0715 47.4 26 14.2 35.8 SSW | 213 0.9 5.8 W | 272
5/2/26 - 0710 47.3 26 14.5 35.8 WSW | 243 1.5 4.1 WSW | 252
5/2/26 - 0705 47.2 26 14.1 35.6 SW | 224 1.6 5.2 SSW | 195
5/2/26 - 0700 46.8 26 13.6 35.3 SSW | 203 0.8 2.6 SSW | 203
5/2/26 - 0655 46.6 26 13.5 35.2 SSW | 210 1.1 4.7 SSW | 197
5/2/26 - 0650 46.0 26 12.6 34.7 WSW | 237 1.1 5.6 W | 276
5/2/26 - 0645 44.0 25 10.3 33.2 SSW | 206 0.6 2.7 SSW | 203
5/2/26 - 0640 40.9 25 7.5 30.9 S | 183 0.2 1.2 SSW | 196
5/2/26 - 0635 40.5 24 6.7 30.5 SSE | 162 0.2 2.2 S | 173
5/2/26 - 0630 40.0 24 5.9 30.1 SSE | 157 0.1 1.7 SSE | 157
5/2/26 - 0625 40.4 25 7.2 30.6 S | 187 0.2 1.7 S | 174
5/2/26 - 0620 39.5 25 6.4 29.9 SSW | 199 0.0 0.5 SSW | 207
5/2/26 - 0615 39.4 25 6.6 29.9 S | 178 0.0 0.8 SE | 131
5/2/26 - 0610 40.5 25 7.5 30.6 SSW | 198 0.1 1.4 SSW | 203
5/2/26 - 0605 40.2 25 7.1 30.4 S | 187 0.5 2.3 SSW | 192
5/2/26 - 0600 41.0 25 8.0 31.1 SSW | 198 1.1 3.7 SSW | 194
5/2/26 - 0555 40.1 25 7.5 30.4 SSW | 199 1.1 3.9 S | 189
5/2/26 - 0550 38.9 25 5.9 29.5 S | 179 0.2 2.7 S | 189
5/2/26 - 0545 39.0 25 5.8 29.5 SSW | 197 0.4 2.9 S | 186
5/2/26 - 0540 39.0 25 6.1 29.6 SSW | 210 0.3 2.9 SW | 214
5/2/26 - 0535 38.8 25 5.8 29.4 S | 179 0.3 2.4 S | 178
5/2/26 - 0530 39.1 25 6.3 29.6 S | 181 0.2 1.5 S | 175
5/2/26 - 0525 38.9 26 6.7 29.6 SSW | 198 0.7 4.8 S | 188
5/2/26 - 0520 38.8 25 6.2 29.4 SSW | 194 0.2 1.1 SSW | 192
5/2/26 - 0515 39.2 25 6.3 29.7 S | 185 0.2 2.1 S | 175
5/2/26 - 0510 39.6 25 6.6 30.0 SW | 223 0.0 0.6 SW | 220
5/2/26 - 0505 39.6 25 7.0 30.1 SSW | 210 1.6 6.3 SSW | 203
5/2/26 - 0500 39.8 25 7.2 30.2 SSW | 200 0.4 2.6 SSW | 206
5/2/26 - 0455 40.0 26 7.5 30.4 SSW | 213 0.6 3.3 SSW | 202
5/2/26 - 0450 40.0 26 7.6 30.4 SSW | 206 0.4 2.0 SSW | 200
5/2/26 - 0445 39.9 26 7.4 30.3 S | 183 0.1 2.6 S | 191
5/2/26 - 0440 39.6 26 7.2 30.1 WSW | 255 0.0 0.7 W | 272
5/2/26 - 0435 39.5 25 7.0 30.0 SW | 219 0.4 2.1 WSW | 245
5/2/26 - 0430 39.2 25 6.2 29.7 SW | 226 0.4 2.9 SSW | 204
5/2/26 - 0425 38.8 25 6.0 29.4 WNW | 302 0.0 0.6 NW | 305
5/2/26 - 0420 38.9 25 6.1 29.5 S | 178 0.3 3.4 S | 186
5/2/26 - 0415 39.4 25 6.2 29.8 SW | 222 0.1 1.3 S | 185
5/2/26 - 0410 39.2 25 6.0 29.6 WSW | 255 0.1 1.0 WSW | 244
5/2/26 - 0405 39.5 25 6.5 29.9 SSE | 157 0.2 1.1 E | 90
5/2/26 - 0400 39.2 25 6.0 29.6 N | 0 0.0 0.0 SSW | 192
5/2/26 - 0355 39.3 25 6.2 29.7 SSW | 199 0.0 0.6 SW | 216
5/2/26 - 0350 39.0 25 5.9 29.5 SE | 144 0.0 0.4 SE | 143
5/2/26 - 0345 39.0 24 5.7 29.5 WSW | 250 0.0 0.3 WSW | 252
5/2/26 - 0340 39.5 24 5.6 29.8 SSE | 168 0.0 0.0 SSE | 168
5/2/26 - 0335 39.2 25 6.1 29.6 ESE | 110 0.0 1.1 ESE | 103
5/2/26 - 0330 39.6 24 5.8 29.9 S | 188 0.0 0.6 S | 186
5/2/26 - 0325 39.6 24 6.0 29.9 ESE | 104 0.0 0.8 E | 101
5/2/26 - 0320 40.1 25 7.2 30.4 S | 169 0.2 2.2 S | 174
5/2/26 - 0315 40.3 26 7.9 30.6 SW | 234 0.0 0.5 SSW | 208
5/2/26 - 0310 40.3 26 8.1 30.7 SW | 231 0.0 0.3 SW | 231
5/2/26 - 0305 40.4 26 8.0 30.7 WSW | 243 0.0 0.7 SSE | 148
5/2/26 - 0300 40.2 25 7.4 30.5 SW | 229 0.0 0.2 WSW | 241
5/2/26 - 0255 39.9 26 7.5 30.3 N | 0 0.0 0.0 WSW | 249
5/2/26 - 0250 40.2 26 7.8 30.5 SSW | 209 0.0 0.2 SSW | 209
5/2/26 - 0245 40.1 26 7.7 30.5 SSW | 200 0.4 2.5 S | 188
5/2/26 - 0240 40.2 26 7.8 30.6 SSW | 210 0.6 2.5 SW | 223
5/2/26 - 0235 40.0 25 7.2 30.3 SSW | 206 0.3 2.2 SW | 219
5/2/26 - 0230 40.3 26 7.8 30.6 SSW | 201 1.1 2.9 SSE | 165
5/2/26 - 0225 40.6 26 8.5 30.9 SSW | 203 1.7 4.1 S | 181
5/2/26 - 0220 40.7 26 8.6 31.0 SSW | 202 2.4 4.4 S | 191
5/2/26 - 0215 40.6 26 8.4 30.9 SSW | 200 1.7 4.2 SSW | 205
5/2/26 - 0210 40.8 26 8.8 31.0 SSW | 208 1.4 4.0 SSW | 210
5/2/26 - 0205 40.7 26 8.5 30.9 SSW | 210 0.9 3.1 SSW | 204
5/2/26 - 0200 40.8 25 8.0 30.9 SSW | 207 1.5 3.7 S | 183
5/2/26 - 0155 40.7 25 7.7 30.8 SW | 223 0.7 2.2 WSW | 243
5/2/26 - 0150 40.3 25 7.1 30.5 SSW | 209 0.1 2.5 SSW | 199
5/2/26 - 0145 40.5 25 7.5 30.6 SSW | 200 0.4 3.1 SSW | 203
5/2/26 - 0140 40.7 26 8.1 30.9 SSW | 202 0.4 2.1 SSW | 195
5/2/26 - 0135 41.4 26 9.2 31.5 SW | 215 1.0 2.8 SW | 220
5/2/26 - 0130 41.3 26 9.1 31.4 SSW | 208 1.4 3.3 SSW | 202
5/2/26 - 0125 41.6 26 9.3 31.6 SSW | 209 1.7 3.0 SSW | 196
5/2/26 - 0120 41.0 26 8.4 31.1 SSW | 204 1.7 3.1 SSW | 196
5/2/26 - 0115 41.7 25 8.8 31.6 SSW | 202 1.9 3.2 SSW | 196
5/2/26 - 0110 41.9 25 8.8 31.7 SW | 216 1.3 4.9 SSW | 204
5/2/26 - 0105 42.3 25 9.1 32.0 SW | 217 1.3 2.9 WSW | 251
5/2/26 - 0100 42.8 25 9.5 32.4 SW | 220 2.1 3.9 SSW | 201
5/2/26 - 0055 42.4 26 9.6 32.2 SSW | 201 2.8 5.6 SSW | 194
5/2/26 - 0050 43.2 26 10.3 32.7 SSW | 207 3.0 5.0 SSW | 213
5/2/26 - 0045 43.4 26 11.0 33.0 SSW | 212 2.5 4.8 SW | 226
5/2/26 - 0040 44.1 26 11.6 33.5 SW | 216 2.0 4.5 SW | 223
5/2/26 - 0035 44.6 27 12.3 33.8 SW | 223 1.6 3.5 SW | 214
5/2/26 - 0030 44.1 25 10.8 33.3 SSW | 203 2.7 6.3 S | 190
5/2/26 - 0025 45.2 24 11.0 33.9 SSW | 195 2.3 6.6 SSW | 199
5/2/26 - 0020 45.6 24 10.7 34.1 SSW | 194 1.8 6.6 SSW | 195
5/2/26 - 0015 44.1 24 9.4 33.1 S | 184 0.5 2.5 SSW | 194
5/2/26 - 0010 43.6 24 8.9 32.7 S | 174 0.3 2.6 S | 188
5/2/26 - 0005 44.3 24 9.8 33.3 S | 175 0.3 1.8 SSE | 154
5/2/26 - 0000 45.2 24 10.3 33.8 S | 174 1.4 5.7 S | 182
5/1/26 - 2355 44.1 24 9.7 33.1 SSW | 194 0.4 1.5 SW | 219
5/1/26 - 2350 44.9 24 10.7 33.8 S | 191 0.3 2.5 SSE | 153
5/1/26 - 2345 45.4 24 10.9 34.1 SSW | 202 1.0 3.5 S | 179
5/1/26 - 2340 43.4 24 9.0 32.6 SSW | 192 0.2 3.5 SSW | 195
5/1/26 - 2335 42.8 24 8.1 32.1 SSE | 162 0.0 0.4 SSW | 199
5/1/26 - 2330 43.6 24 8.9 32.7 SSW | 204 0.1 1.2 SSW | 209
5/1/26 - 2325 43.2 23 8.2 32.3 SSE | 164 0.1 1.2 S | 181
5/1/26 - 2320 43.9 23 8.8 32.8 S | 178 0.5 3.0 SSE | 167
5/1/26 - 2315 45.5 24 10.6 34.1 S | 176 1.8 5.5 S | 177
5/1/26 - 2310 45.9 24 11.5 34.4 S | 180 4.6 10.7 S | 178
5/1/26 - 2305 45.9 25 11.8 34.5 S | 181 4.3 9.0 SSW | 192
5/1/26 - 2300 45.5 24 11.0 34.2 SSW | 193 2.0 7.9 SW | 229
5/1/26 - 2255 45.0 24 10.4 33.8 SSW | 198 1.5 6.4 SSW | 196
5/1/26 - 2250 43.0 24 8.2 32.3 S | 173 0.2 1.3 SSE | 168
5/1/26 - 2245 43.9 23 8.6 32.8 NNW | 335 0.3 1.8 S | 190
5/1/26 - 2240 44.2 24 9.3 33.1 N | 349 1.0 3.5 S | 188
5/1/26 - 2235 43.2 24 9.0 32.5 NW | 313 0.7 4.6 N | 2
5/1/26 - 2230 42.5 23 7.6 31.8 S | 173 0.1 1.4 SSE | 166
5/1/26 - 2225 42.0 23 7.0 31.4 S | 190 0.4 3.1 S | 181
5/1/26 - 2220 42.4 23 7.4 31.8 SSW | 197 0.0 0.9 SW | 217
5/1/26 - 2215 42.2 24 7.6 31.7 N | 0 0.0 0.0 W | 279
5/1/26 - 2210 42.0 23 7.0 31.5 N | 0 0.0 0.0 ESE | 115
5/1/26 - 2205 42.6 23 7.7 31.9 S | 190 0.1 1.2 SSE | 164
5/1/26 - 2200 42.3 23 7.6 31.8 S | 181 0.2 1.8 SSW | 197
5/1/26 - 2155 42.9 23 8.0 32.1 N | 0 0.0 0.0 SSE | 166
5/1/26 - 2150 42.8 23 7.5 32.0 N | 0 0.0 0.0 SSE | 166
5/1/26 - 2145 43.0 23 7.9 32.2 SSW | 196 0.1 1.1 S | 188
5/1/26 - 2140 42.2 23 7.0 31.6 SSW | 203 0.0 0.3 SSW | 203
5/1/26 - 2135 42.9 23 7.5 32.1 N | 0 0.0 0.0 S | 171
5/1/26 - 2130 43.5 23 7.8 32.5 N | 0 0.0 0.0 SSW | 204
5/1/26 - 2125 43.9 24 9.0 32.9 SW | 214 0.2 2.3 S | 181
5/1/26 - 2120 44.2 24 9.4 33.1 SSW | 204 0.6 2.2 SSW | 211
5/1/26 - 2115 44.9 24 10.3 33.7 SW | 235 0.4 1.7 WSW | 256
5/1/26 - 2110 45.3 24 10.9 34.0 SW | 226 0.8 3.5 WSW | 242
5/1/26 - 2105 45.6 25 11.9 34.4 WSW | 243 1.7 4.0 WSW | 248
5/1/26 - 2100 45.2 25 11.4 34.0 WSW | 251 1.5 2.9 WSW | 255
5/1/26 - 2055 45.2 25 11.4 34.0 WSW | 250 1.8 3.5 WSW | 251
5/1/26 - 2050 45.6 25 11.5 34.3 SW | 229 1.4 2.7 WSW | 250
5/1/26 - 2045 45.2 24 10.8 33.9 SW | 224 1.2 2.9 WSW | 250
5/1/26 - 2040 45.5 24 10.9 34.1 SSW | 212 1.6 5.9 S | 186
5/1/26 - 2035 45.4 24 10.6 34.0 SW | 223 0.9 4.3 SSW | 197
5/1/26 - 2030 45.9 24 10.8 34.3 SSW | 212 0.9 3.8 SSW | 208
5/1/26 - 2025 44.1 24 9.2 33.0 S | 182 1.0 4.0 SSW | 203
5/1/26 - 2020 45.9 24 11.1 34.4 WSW | 237 0.3 2.9 SSW | 209
5/1/26 - 2015 45.3 23 9.9 33.8 SSW | 195 0.3 1.6 SSW | 212
5/1/26 - 2010 46.3 24 11.3 34.7 SW | 233 0.7 4.0 SSW | 193
5/1/26 - 2005 45.7 24 10.6 34.2 SW | 215 0.5 2.9 S | 182
5/1/26 - 2000 46.0 24 11.1 34.4 W | 280 0.2 1.1 WNW | 290
5/1/26 - 1955 46.4 24 12.0 34.8 SW | 233 0.7 2.0 W | 261
5/1/26 - 1950 46.8 24 12.3 35.1 SW | 218 0.8 4.3 SSW | 200
5/1/26 - 1945 46.9 24 12.4 35.2 SW | 214 0.3 2.6 SSW | 207
5/1/26 - 1940 47.4 24 12.8 35.5 SW | 229 0.6 2.5 WSW | 248
5/1/26 - 1935 47.3 24 12.3 35.4 SSW | 198 1.6 3.9 SSW | 199
5/1/26 - 1930 48.2 24 13.1 36.0 SSW | 195 2.7 4.4 SSW | 210
5/1/26 - 1925 47.7 24 12.5 35.6 SSW | 202 1.3 3.1 SSW | 207
5/1/26 - 1920 47.7 24 12.8 35.7 S | 183 2.2 5.2 SSW | 205
5/1/26 - 1915 48.1 24 13.3 36.0 SSW | 203 2.3 4.8 S | 184
5/1/26 - 1910 48.7 24 13.6 36.4 SSW | 193 3.8 7.3 S | 190
5/1/26 - 1905 48.9 24 13.6 36.5 S | 184 2.5 7.9 SSE | 152
5/1/26 - 1900 48.4 23 12.7 36.1 SSW | 200 1.4 3.9 SSW | 194
5/1/26 - 1855 49.2 23 13.2 36.5 SSW | 198 1.1 2.3 SSW | 196
5/1/26 - 1850 49.2 23 13.3 36.6 SSW | 202 0.7 2.4 SSW | 198
5/1/26 - 1845 49.8 24 14.1 37.1 SSW | 200 0.1 1.3 SSW | 198
5/1/26 - 1840 49.7 24 14.0 37.0 S | 185 0.5 2.9 S | 173
5/1/26 - 1835 50.4 24 14.8 37.5 S | 179 1.9 4.1 S | 184
5/1/26 - 1830 50.6 24 15.2 37.7 S | 188 2.6 7.3 SSW | 204
5/1/26 - 1825 51.4 24 15.9 38.2 S | 188 1.4 4.3 SSW | 193
5/1/26 - 1820 51.4 24 15.9 38.3 SSW | 194 2.1 5.6 SSW | 207
5/1/26 - 1815 52.1 24 16.3 38.7 S | 182 2.3 5.7 S | 170
5/1/26 - 1810 52.3 24 16.7 38.9 S | 189 1.4 3.9 SW | 214
5/1/26 - 1805 52.7 24 17.0 39.1 S | 176 2.4 6.3 S | 191
5/1/26 - 1800 52.9 24 17.5 39.3 SSW | 206 1.6 3.7 SSW | 193
5/1/26 - 1755 53.5 25 18.3 39.8 SW | 220 1.1 4.7 S | 191
5/1/26 - 1750 54.2 25 18.8 40.2 WSW | 241 1.0 4.8 SW | 235
5/1/26 - 1745 54.2 24 18.4 40.2 SSW | 203 0.7 2.5 SW | 214
5/1/26 - 1740 53.8 24 18.0 39.9 SSW | 205 0.9 3.8 SSW | 208
5/1/26 - 1735 53.5 24 17.6 39.6 SSW | 195 1.8 4.4 S | 177
5/1/26 - 1730 53.1 24 17.2 39.4 SSW | 208 1.7 4.5 SSW | 194
5/1/26 - 1725 53.6 24 18.0 39.8 WSW | 241 2.3 4.8 SSW | 202
5/1/26 - 1720 53.8 24 18.2 40.0 SSW | 202 1.3 5.9 SW | 217
5/1/26 - 1715 54.2 25 18.7 40.2 SSW | 196 1.7 4.8 SSW | 213
5/1/26 - 1710 54.9 25 20.0 40.9 S | 191 1.2 5.6 S | 186
5/1/26 - 1705 54.8 26 20.3 40.9 SSW | 198 0.9 3.1 SSW | 203
5/1/26 - 1700 55.5 26 21.2 41.4 NNW | 334 1.4 3.4 N | 0
5/1/26 - 1655 55.9 25 20.9 41.5 N | 4 1.6 4.8 NW | 315
5/1/26 - 1650 56.9 26 22.0 42.3 SSW | 208 0.1 1.3 NNW | 342
5/1/26 - 1645 57.0 25 22.0 42.4 N | 357 1.3 5.2 NNE | 26
5/1/26 - 1640 56.0 25 20.7 41.6 SSE | 165 2.1 6.7 SSE | 154
5/1/26 - 1635 56.7 25 21.0 42.0 S | 179 3.1 7.0 SSE | 149
5/1/26 - 1630 58.1 25 22.0 42.8 SE | 137 0.4 3.7 SE | 144
5/1/26 - 1625 56.7 25 20.9 41.9 ESE | 122 1.8 5.2 SSE | 150
5/1/26 - 1620 58.2 25 22.5 43.0 SE | 143 1.2 4.4 S | 178
5/1/26 - 1615 58.5 25 23.0 43.3 SSW | 202 0.3 1.7 SSW | 195
5/1/26 - 1610 57.2 26 22.9 42.7 SW | 220 0.9 3.2 SW | 217
5/1/26 - 1605 56.0 26 21.2 41.7 W | 269 2.0 5.3 W | 273
5/1/26 - 1600 56.0 26 21.4 41.7 N | 360 2.0 7.4 NNE | 32
5/1/26 - 1555 56.8 26 22.4 42.4 NNW | 327 2.2 5.5 NW | 315
5/1/26 - 1550 56.7 26 22.0 42.2 NNW | 341 5.2 10.5 NW | 304
5/1/26 - 1545 56.5 25 21.6 42.0 ESE | 121 1.8 6.4 NNE | 14
5/1/26 - 1540 57.1 25 21.5 42.3 NE | 39 2.0 7.4 SSE | 151
5/1/26 - 1535 57.1 25 21.9 42.4 NNW | 328 1.4 9.3 SSE | 158
5/1/26 - 1530 56.0 24 19.9 41.4 NNE | 17 3.6 11.2 N | 2
5/1/26 - 1525 55.7 25 20.3 41.3 E | 95 2.0 5.4 ESE | 123
Max 58.5 28 23.0 43.3 - 6.5 14.8 -
Avg 47.5 25 13.6 35.7 - 1.6 5.0 -
Min 38.8 23 5.6 29.4 - 0.0 0.0 -